ACA403 CYUL-CYYZ
Flight info
| Callsign | ACA403 |
|---|---|
| Flight time | N/A |
| Altitude | 36000 |
| Route | BOBKI DCT MELTI DCT TORNI RAGID6 |
| Aircraft | A333/H-SDE3GHIJ2J3J5M1RVWXY/LB2D1 |
Departure
| Time | N/A |
|---|---|
| Airport | Montreal / Pierre Elliott Trudeau International Airport (CYUL) |
Arrival
| Time | 2026-05-03 20:44 |
|---|---|
| Airport | Toronto Pearson International Airport (CYYZ) |
| Time | Latitude | Longitude | Altitude | Speed | Heading |
|---|---|---|---|---|---|
| 2026-05-03 20:15 | 44.90222 | -76.73161 | 35851 ft | 422 kts | 243° |
| 2026-05-03 20:15 | 44.87329 | -76.80385 | 35794 ft | 426 kts | 242° |
| 2026-05-03 20:15 | 44.85879 | -76.84004 | 35571 ft | 433 kts | 242° |
| 2026-05-03 20:16 | 44.84397 | -76.87693 | 35347 ft | 433 kts | 242° |
| 2026-05-03 20:16 | 44.82913 | -76.91380 | 35103 ft | 433 kts | 243° |
| 2026-05-03 20:16 | 44.81427 | -76.95071 | 34879 ft | 432 kts | 243° |
| 2026-05-03 20:16 | 44.79950 | -76.98730 | 34520 ft | 428 kts | 243° |
| 2026-05-03 20:17 | 44.78477 | -77.02377 | 33951 ft | 428 kts | 243° |
| 2026-05-03 20:17 | 44.76999 | -77.06032 | 33267 ft | 429 kts | 243° |
| 2026-05-03 20:17 | 44.75526 | -77.09670 | 32648 ft | 427 kts | 243° |
| 2026-05-03 20:17 | 44.74052 | -77.13305 | 32032 ft | 427 kts | 243° |
| 2026-05-03 20:18 | 44.72581 | -77.16929 | 31445 ft | 425 kts | 243° |
| 2026-05-03 20:18 | 44.71120 | -77.20523 | 31035 ft | 420 kts | 243° |
| 2026-05-03 20:18 | 44.69677 | -77.24065 | 30608 ft | 415 kts | 244° |
| 2026-05-03 20:18 | 44.68248 | -77.27573 | 30164 ft | 411 kts | 244° |
| 2026-05-03 20:19 | 44.66831 | -77.31044 | 29688 ft | 407 kts | 244° |
| 2026-05-03 20:19 | 44.65432 | -77.34470 | 29225 ft | 402 kts | 244° |
| 2026-05-03 20:19 | 44.64051 | -77.37846 | 28795 ft | 396 kts | 244° |
| 2026-05-03 20:19 | 44.62692 | -77.41163 | 28363 ft | 391 kts | 244° |
| 2026-05-03 20:20 | 44.61360 | -77.44414 | 27936 ft | 387 kts | 244° |
| 2026-05-03 20:20 | 44.60023 | -77.47672 | 27494 ft | 382 kts | 245° |
| 2026-05-03 20:20 | 44.58642 | -77.51032 | 27079 ft | 377 kts | 245° |
| 2026-05-03 20:20 | 44.57399 | -77.54056 | 26693 ft | 373 kts | 245° |
| 2026-05-03 20:21 | 44.56102 | -77.57206 | 26251 ft | 371 kts | 245° |
| 2026-05-03 20:21 | 44.54816 | -77.60327 | 25834 ft | 369 kts | 245° |
| 2026-05-03 20:21 | 44.53534 | -77.63433 | 25419 ft | 366 kts | 245° |
| 2026-05-03 20:21 | 44.52263 | -77.66510 | 25011 ft | 364 kts | 245° |
| 2026-05-03 20:22 | 44.50999 | -77.69567 | 24615 ft | 361 kts | 245° |
| 2026-05-03 20:22 | 44.49743 | -77.72601 | 24204 ft | 359 kts | 245° |
| 2026-05-03 20:22 | 44.48495 | -77.75615 | 23779 ft | 356 kts | 245° |
| 2026-05-03 20:22 | 44.47271 | -77.78564 | 23375 ft | 354 kts | 245° |
| 2026-05-03 20:23 | 44.46023 | -77.81568 | 22941 ft | 350 kts | 245° |
| 2026-05-03 20:23 | 44.44819 | -77.84464 | 22557 ft | 348 kts | 245° |
| 2026-05-03 20:23 | 44.43605 | -77.87381 | 22160 ft | 345 kts | 245° |
| 2026-05-03 20:23 | 44.42399 | -77.90276 | 21773 ft | 343 kts | 245° |
| 2026-05-03 20:24 | 44.41203 | -77.93143 | 21384 ft | 340 kts | 245° |
| 2026-05-03 20:24 | 44.40017 | -77.95983 | 20991 ft | 337 kts | 245° |
| 2026-05-03 20:24 | 44.38838 | -77.98805 | 20642 ft | 335 kts | 245° |
| 2026-05-03 20:24 | 44.37667 | -78.01605 | 20368 ft | 333 kts | 245° |
| 2026-05-03 20:25 | 44.36502 | -78.04387 | 19998 ft | 331 kts | 245° |
| 2026-05-03 20:25 | 44.35340 | -78.07162 | 19627 ft | 330 kts | 245° |
| 2026-05-03 20:25 | 44.34184 | -78.09918 | 19253 ft | 328 kts | 245° |
| 2026-05-03 20:25 | 44.33037 | -78.12648 | 18881 ft | 325 kts | 245° |
| 2026-05-03 20:26 | 44.31900 | -78.15353 | 18511 ft | 323 kts | 246° |
| 2026-05-03 20:26 | 44.30770 | -78.18041 | 18133 ft | 321 kts | 245° |
| 2026-05-03 20:26 | 44.29641 | -78.20720 | 17719 ft | 319 kts | 245° |
| 2026-05-03 20:26 | 44.28518 | -78.23386 | 17344 ft | 317 kts | 245° |
| 2026-05-03 20:27 | 44.27401 | -78.26030 | 16967 ft | 315 kts | 245° |
| 2026-05-03 20:27 | 44.26292 | -78.28656 | 16610 ft | 313 kts | 245° |
| 2026-05-03 20:27 | 44.25191 | -78.31263 | 16238 ft | 311 kts | 245° |
| 2026-05-03 20:27 | 44.24096 | -78.33852 | 15865 ft | 309 kts | 245° |
| 2026-05-03 20:28 | 44.23012 | -78.36410 | 15519 ft | 307 kts | 245° |
| 2026-05-03 20:28 | 44.21920 | -78.38987 | 15132 ft | 305 kts | 245° |
| 2026-05-03 20:28 | 44.20861 | -78.41485 | 14772 ft | 303 kts | 245° |
| 2026-05-03 20:28 | 44.19788 | -78.44013 | 14422 ft | 301 kts | 245° |
| 2026-05-03 20:29 | 44.18726 | -78.46510 | 14069 ft | 299 kts | 245° |
| 2026-05-03 20:29 | 44.17666 | -78.49003 | 13722 ft | 297 kts | 245° |
| 2026-05-03 20:29 | 44.16615 | -78.51472 | 13332 ft | 295 kts | 245° |
| 2026-05-03 20:29 | 44.15573 | -78.53919 | 12977 ft | 293 kts | 245° |
| 2026-05-03 20:30 | 44.14536 | -78.56350 | 12624 ft | 291 kts | 245° |
| 2026-05-03 20:30 | 44.13506 | -78.58764 | 12304 ft | 289 kts | 245° |
| 2026-05-03 20:30 | 44.12480 | -78.61166 | 11963 ft | 287 kts | 244° |
| 2026-05-03 20:30 | 44.11462 | -78.63549 | 11627 ft | 285 kts | 244° |
| 2026-05-03 20:31 | 44.10451 | -78.65911 | 11277 ft | 284 kts | 244° |
| 2026-05-03 20:31 | 44.09459 | -78.68304 | 11005 ft | 291 kts | 245° |
| 2026-05-03 20:31 | 44.08456 | -78.70800 | 10763 ft | 297 kts | 244° |
| 2026-05-03 20:31 | 44.07445 | -78.73307 | 10521 ft | 296 kts | 244° |
| 2026-05-03 20:32 | 44.06450 | -78.75767 | 10252 ft | 295 kts | 244° |
| 2026-05-03 20:32 | 44.05443 | -78.78248 | 9990 ft | 293 kts | 244° |
| 2026-05-03 20:32 | 44.04456 | -78.80673 | 9739 ft | 283 kts | 244° |
| 2026-05-03 20:32 | 44.03506 | -78.82999 | 9537 ft | 270 kts | 244° |
| 2026-05-03 20:33 | 44.02604 | -78.85209 | 9389 ft | 258 kts | 244° |
| 2026-05-03 20:33 | 44.01735 | -78.87341 | 9256 ft | 251 kts | 244° |
| 2026-05-03 20:33 | 44.00877 | -78.89449 | 9118 ft | 251 kts | 244° |
| 2026-05-03 20:33 | 44.00019 | -78.91557 | 8926 ft | 251 kts | 244° |
| 2026-05-03 20:34 | 43.99160 | -78.93663 | 8665 ft | 250 kts | 244° |
| 2026-05-03 20:34 | 43.98302 | -78.95762 | 8392 ft | 249 kts | 244° |
| 2026-05-03 20:34 | 43.97447 | -78.97853 | 8137 ft | 249 kts | 244° |
| 2026-05-03 20:34 | 43.96595 | -78.99934 | 7872 ft | 248 kts | 244° |
| 2026-05-03 20:35 | 43.95743 | -79.02016 | 7606 ft | 248 kts | 243° |
| 2026-05-03 20:35 | 43.94892 | -79.04090 | 7346 ft | 247 kts | 243° |
| 2026-05-03 20:35 | 43.94042 | -79.06163 | 7113 ft | 247 kts | 243° |
| 2026-05-03 20:35 | 43.93193 | -79.08228 | 6866 ft | 246 kts | 243° |
| 2026-05-03 20:36 | 43.92344 | -79.10293 | 6611 ft | 246 kts | 243° |
| 2026-05-03 20:36 | 43.91500 | -79.12349 | 6371 ft | 245 kts | 243° |
| 2026-05-03 20:36 | 43.90656 | -79.14401 | 6120 ft | 245 kts | 242° |
| 2026-05-03 20:36 | 43.89815 | -79.16443 | 6019 ft | 243 kts | 243° |
| 2026-05-03 20:37 | 43.88980 | -79.18469 | 5856 ft | 238 kts | 243° |
| 2026-05-03 20:37 | 43.88170 | -79.20428 | 5724 ft | 231 kts | 243° |
| 2026-05-03 20:37 | 43.87381 | -79.22338 | 5488 ft | 226 kts | 243° |
| 2026-05-03 20:37 | 43.86604 | -79.24221 | 5233 ft | 224 kts | 243° |
| 2026-05-03 20:38 | 43.85831 | -79.26092 | 4987 ft | 223 kts | 243° |
| 2026-05-03 20:38 | 43.85064 | -79.27948 | 4716 ft | 221 kts | 243° |
| 2026-05-03 20:38 | 43.84302 | -79.29791 | 4437 ft | 220 kts | 243° |
| 2026-05-03 20:38 | 43.83550 | -79.31607 | 4167 ft | 219 kts | 243° |
| 2026-05-03 20:39 | 43.82792 | -79.33436 | 3909 ft | 217 kts | 243° |
| 2026-05-03 20:39 | 43.82042 | -79.35247 | 3678 ft | 217 kts | 243° |
| 2026-05-03 20:39 | 43.81290 | -79.37059 | 3443 ft | 217 kts | 242° |
| 2026-05-03 20:39 | 43.80539 | -79.38873 | 3210 ft | 217 kts | 243° |
| 2026-05-03 20:40 | 43.79771 | -79.40724 | 3048 ft | 224 kts | 242° |
| 2026-05-03 20:40 | 43.79015 | -79.42536 | 3030 ft | 211 kts | 242° |
| 2026-05-03 20:40 | 43.78172 | -79.44142 | 3023 ft | 201 kts | 234° |
| 2026-05-03 20:40 | 43.77252 | -79.45527 | 3023 ft | 190 kts | 232° |
| 2026-05-03 20:41 | 43.76361 | -79.46829 | 2998 ft | 185 kts | 232° |
| 2026-05-03 20:41 | 43.75499 | -79.48088 | 2998 ft | 174 kts | 233° |
| 2026-05-03 20:41 | 43.74680 | -79.49307 | 2749 ft | 174 kts | 233° |
| 2026-05-03 20:41 | 43.73844 | -79.50529 | 2447 ft | 174 kts | 232° |
| 2026-05-03 20:42 | 43.73013 | -79.51733 | 2186 ft | 172 kts | 232° |
| 2026-05-03 20:42 | 43.72207 | -79.52908 | 1966 ft | 169 kts | 232° |
| 2026-05-03 20:42 | 43.71406 | -79.54076 | 1734 ft | 164 kts | 232° |
| 2026-05-03 20:42 | 43.70643 | -79.55184 | 1490 ft | 153 kts | 233° |
| 2026-05-03 20:43 | 43.69952 | -79.56193 | 1294 ft | 136 kts | 232° |
| 2026-05-03 20:43 | 43.69324 | -79.57101 | 1082 ft | 124 kts | 227° |
| 2026-05-03 20:43 | 43.68749 | -79.57931 | 939 ft | 117 kts | 227° |
| 2026-05-03 20:43 | 43.68195 | -79.58746 | 810 ft | 116 kts | 225° |
| 2026-05-03 20:44 | 43.67649 | -79.59540 | 645 ft | 112 kts | 227° |
| 2026-05-03 20:44 | 43.67119 | -79.60308 | 568 ft | 104 kts | 227° |
| 2026-05-03 20:44 | 43.66703 | -79.60921 | 574 ft | 73 kts | 227° |
| 2026-05-03 20:44 | 43.66463 | -79.61301 | 569 ft | 40 kts | 240° |
| 2026-05-03 20:45 | 43.66392 | -79.61546 | 566 ft | 17 kts | 252° |
| 2026-05-03 20:45 | 43.66382 | -79.61688 | 567 ft | 13 kts | 294° |
| 2026-05-03 20:45 | 43.66440 | -79.61777 | 575 ft | 12 kts | 316° |
| 2026-05-03 20:45 | 43.66507 | -79.61863 | 573 ft | 15 kts | 317° |
| 2026-05-03 20:46 | 43.66586 | -79.61967 | 572 ft | 16 kts | 316° |
| 2026-05-03 20:46 | 43.66653 | -79.62013 | 576 ft | 8 kts | 12° |
| 2026-05-03 20:46 | 43.66702 | -79.61966 | 578 ft | 13 kts | 43° |
| 2026-05-03 20:46 | 43.66784 | -79.61862 | 578 ft | 17 kts | 42° |
| 2026-05-03 20:47 | 43.66875 | -79.61749 | 577 ft | 18 kts | 41° |
| 2026-05-03 20:47 | 43.66969 | -79.61631 | 577 ft | 19 kts | 42° |
| 2026-05-03 20:47 | 43.67066 | -79.61507 | 579 ft | 19 kts | 43° |
| 2026-05-03 20:47 | 43.67167 | -79.61378 | 577 ft | 21 kts | 45° |
| 2026-05-03 20:48 | 43.67261 | -79.61210 | 572 ft | 17 kts | 53° |
| 2026-05-03 20:48 | 43.67329 | -79.61103 | 570 ft | 13 kts | 29° |
| 2026-05-03 20:48 | 43.67415 | -79.61101 | 569 ft | 13 kts | 352° |
| 2026-05-03 20:48 | 43.67477 | -79.61169 | 573 ft | 12 kts | 282° |
| 2026-05-03 20:49 | 43.67492 | -79.61285 | 570 ft | 13 kts | 285° |
| 2026-05-03 20:49 | 43.67516 | -79.61366 | 573 ft | 8 kts | 298° |
| 2026-05-03 20:49 | 43.67553 | -79.61378 | 575 ft | 6 kts | 20° |
| 2026-05-03 20:49 | 43.67588 | -79.61347 | 568 ft | 6 kts | 34° |
| 2026-05-03 20:50 | 43.67606 | -79.61328 | 573 ft | 3 kts | 40° |
| 2026-05-03 20:50 | 43.67616 | -79.61314 | 573 ft | 0 kts | 44° |